createdAt,value
2022-08-07T00:00:35.994Z,99399.97
2022-08-07T00:02:44.286Z,99399.97
2022-08-07T00:04:46.590Z,99395.00
2022-08-07T00:06:52.156Z,99396.34
2022-08-07T00:08:54.317Z,99402.59
2022-08-07T00:10:58.432Z,99405.19
2022-08-07T00:13:09.724Z,99403.31
2022-08-07T00:15:25.869Z,99404.84
2022-08-07T00:17:40.486Z,99408.47
2022-08-07T00:20:01.454Z,99404.16
2022-08-07T00:22:04.664Z,99411.88
2022-08-07T00:24:06.861Z,99405.19
2022-08-07T00:26:18.917Z,99407.03
2022-08-07T00:28:34.388Z,99410.84
2022-08-07T00:30:36.560Z,99412.25
2022-08-07T00:32:38.343Z,99410.69
2022-08-07T00:34:41.995Z,99415.88
2022-08-07T00:36:44.607Z,99411.69
2022-08-07T00:38:46.541Z,99420.88
2022-08-07T00:40:52.235Z,99407.56
2022-08-07T00:42:54.849Z,99416.88
2022-08-07T00:44:56.711Z,99415.00
2022-08-07T00:46:59.597Z,99423.78
2022-08-07T00:49:03.110Z,99429.66
2022-08-07T00:51:05.358Z,99429.31
2022-08-07T00:53:09.155Z,99417.22
2022-08-07T00:55:12.737Z,99423.25
2022-08-07T00:57:20.101Z,99422.75
2022-08-07T00:59:32.698Z,99433.06
2022-08-07T01:01:44.100Z,99426.84
2022-08-07T01:03:55.547Z,99425.28
2022-08-07T01:06:03.243Z,99422.88
2022-08-07T01:08:06.060Z,99439.06
2022-08-07T01:10:12.565Z,99434.06
2022-08-07T01:12:29.870Z,99433.88
2022-08-07T01:14:33.678Z,99436.31
2022-08-07T01:16:42.907Z,99427.34
2022-08-07T01:18:45.550Z,99429.94
2022-08-07T01:21:22.436Z,99438.03
2022-08-07T01:23:37.903Z,99439.22
2022-08-07T01:25:55.266Z,99447.84
2022-08-07T01:27:59.035Z,99441.97
2022-08-07T01:30:02.388Z,99437.16
2022-08-07T01:32:13.439Z,99447.91
2022-08-07T01:34:19.119Z,99441.69
2022-08-07T01:36:22.129Z,99440.13
2022-08-07T01:38:40.114Z,99436.31
2022-08-07T01:40:55.550Z,99441.97
2022-08-07T01:42:59.022Z,99450.19
2022-08-07T01:45:10.012Z,99442.06
2022-08-07T01:48:19.605Z,99445.00
2022-08-07T01:49:45.381Z,99451.72
2022-08-07T01:52:02.232Z,99440.81
2022-08-07T01:54:19.196Z,99439.09
2022-08-07T01:56:55.210Z,99436.16
2022-08-07T01:59:09.326Z,99438.91
2022-08-07T02:01:59.843Z,99439.41
2022-08-07T02:04:03.471Z,99441.66
2022-08-07T02:06:30.636Z,99436.16
2022-08-07T02:08:42.388Z,99446.47
2022-08-07T02:10:54.986Z,99446.44
2022-08-07T02:13:02.884Z,99443.81
2022-08-07T02:15:12.590Z,99454.19
2022-08-07T02:17:27.743Z,99449.69
2022-08-07T02:20:07.057Z,99451.09
2022-08-07T02:21:57.778Z,99447.44
2022-08-07T02:24:02.715Z,99456.72
2022-08-07T02:26:26.561Z,99455.06
2022-08-07T02:28:30.213Z,99463.31
2022-08-07T02:30:38.792Z,99461.16
2022-08-07T02:33:03.635Z,99459.44
2022-08-07T02:35:09.058Z,99455.84
2022-08-07T02:37:13.717Z,99450.81
2022-08-07T02:39:43.418Z,99453.22
2022-08-07T02:41:41.181Z,99454.09
2022-08-07T02:43:55.966Z,99450.47
2022-08-07T02:46:02.366Z,99459.06
2022-08-07T02:48:15.366Z,99459.13
2022-08-07T02:50:19.383Z,99452.25
2022-08-07T02:52:37.357Z,99449.50
2022-08-07T02:54:42.375Z,99454.53
2022-08-07T02:56:48.186Z,99449.66
2022-08-07T02:58:54.024Z,99450.81
2022-08-07T03:00:59.440Z,99461.81
2022-08-07T03:03:06.107Z,99463.06
2022-08-07T03:05:12.334Z,99464.97
2022-08-07T03:08:05.301Z,99470.25
2022-08-07T03:09:52.136Z,99473.63
2022-08-07T03:11:57.938Z,99489.94
2022-08-07T03:14:05.965Z,99480.81
2022-08-07T03:16:08.424Z,99489.53
2022-08-07T03:18:17.522Z,99488.06
2022-08-07T03:20:24.077Z,99479.19
2022-08-07T03:22:29.543Z,99481.22
2022-08-07T03:24:34.019Z,99483.66
2022-08-07T03:26:43.112Z,99486.97
2022-08-07T03:28:58.662Z,99484.94
2022-08-07T03:31:23.720Z,99484.69
2022-08-07T03:33:32.099Z,99482.03
2022-08-07T03:35:43.674Z,99483.06
2022-08-07T03:38:04.806Z,99486.16
2022-08-07T03:40:16.000Z,99491.47
2022-08-07T03:42:20.158Z,99490.56
2022-08-07T03:44:31.921Z,99493.25
2022-08-07T03:46:38.131Z,99497.97
2022-08-07T03:49:03.037Z,99496.56
2022-08-07T03:51:11.833Z,99509.78
2022-08-07T03:53:17.398Z,99507.03
2022-08-07T03:55:21.895Z,99513.81
2022-08-07T03:58:32.977Z,99515.84
2022-08-07T04:00:01.553Z,99511.63
2022-08-07T04:02:06.696Z,99504.63
2022-08-07T04:04:17.271Z,99513.28
2022-08-07T04:06:36.283Z,99504.69
2022-08-07T04:08:45.077Z,99512.41
2022-08-07T04:10:54.726Z,99515.31
2022-08-07T04:13:15.628Z,99516.88
2022-08-07T04:15:23.969Z,99514.97
2022-08-07T04:18:30.743Z,99515.34
2022-08-07T04:19:53.998Z,99509.00
2022-08-07T04:22:08.722Z,99511.88
2022-08-07T04:24:30.378Z,99507.59
2022-08-07T04:26:34.329Z,99513.28
2022-08-07T04:28:37.613Z,99508.97
2022-08-07T04:30:55.500Z,99519.38
2022-08-07T04:33:15.520Z,99519.09
2022-08-07T04:35:21.420Z,99513.50
2022-08-07T04:37:25.434Z,99515.19
2022-08-07T04:39:35.707Z,99517.59
2022-08-07T04:41:39.619Z,99521.66
2022-08-07T04:44:12.106Z,99514.97
2022-08-07T04:46:25.954Z,99518.09
2022-08-07T04:49:14.927Z,99502.78
2022-08-07T04:51:49.576Z,99513.38
2022-08-07T04:54:22.635Z,99514.47
2022-08-07T04:58:16.446Z,99520.69
2022-08-07T05:00:08.949Z,99520.34
2022-08-07T05:02:01.512Z,99512.91
2022-08-07T05:04:15.642Z,99511.81
2022-08-07T05:06:51.755Z,99517.06
2022-08-07T05:09:08.379Z,99519.72
2022-08-07T05:11:24.326Z,99517.28
2022-08-07T05:14:55.988Z,99522.13
2022-08-07T05:16:04.763Z,99530.44
2022-08-07T05:18:19.373Z,99530.00
2022-08-07T05:20:27.226Z,99538.13
2022-08-07T05:22:36.710Z,99536.97
2022-08-07T05:24:41.926Z,99549.78
2022-08-07T05:26:50.756Z,99550.00
2022-08-07T05:28:56.371Z,99558.25
2022-08-07T05:31:03.790Z,99564.69
2022-08-07T05:33:09.499Z,99560.56
2022-08-07T05:35:12.530Z,99558.75
2022-08-07T05:37:25.196Z,99563.09
2022-08-07T05:40:17.191Z,99563.16
2022-08-07T05:42:01.097Z,99559.06
2022-08-07T05:44:12.332Z,99562.56
2022-08-07T05:46:24.029Z,99563.06
2022-08-07T05:48:29.948Z,99572.06
2022-08-07T05:50:34.266Z,99567.75
2022-08-07T05:52:36.318Z,99576.41
2022-08-07T05:54:53.453Z,99565.75
2022-08-07T05:57:01.368Z,99570.47
2022-08-07T05:59:15.297Z,99563.59
2022-08-07T06:01:20.951Z,99567.41
2022-08-07T06:03:26.548Z,99574.50
2022-08-07T06:05:49.350Z,99553.59
2022-08-07T06:08:14.594Z,99562.41
2022-08-07T06:10:23.932Z,99566.41
2022-08-07T06:12:27.865Z,99566.41
2022-08-07T06:14:35.688Z,99570.53
2022-08-07T06:16:39.952Z,99569.03
2022-08-07T06:18:43.440Z,99570.59
2022-08-07T06:22:14.680Z,99570.25
2022-08-07T06:23:46.337Z,99564.84
2022-08-07T06:25:40.681Z,99570.75
2022-08-07T06:28:17.567Z,99574.00
2022-08-07T06:30:35.519Z,99589.91
2022-08-07T06:32:43.638Z,99581.81
2022-08-07T06:34:47.930Z,99580.25
2022-08-07T06:36:52.095Z,99579.38
2022-08-07T06:40:16.941Z,99575.41
2022-08-07T06:42:00.385Z,99570.88
2022-08-07T06:44:01.616Z,99572.66
2022-08-07T06:46:12.230Z,99558.59
2022-08-07T06:48:14.797Z,99564.13
2022-08-07T06:50:20.083Z,99560.34
2022-08-07T06:52:31.746Z,99558.94
2022-08-07T06:55:32.014Z,99569.09
2022-08-07T06:57:03.332Z,99558.19
2022-08-07T07:00:13.921Z,99566.63
2022-08-07T07:01:48.844Z,99567.81
2022-08-07T07:03:57.192Z,99570.91
2022-08-07T07:06:11.406Z,99561.91
2022-08-07T07:08:18.782Z,99557.03
2022-08-07T07:10:33.937Z,99563.75
2022-08-07T07:12:50.240Z,99562.47
2022-08-07T07:15:23.829Z,99571.78
2022-08-07T07:17:58.700Z,99566.56
2022-08-07T07:20:06.293Z,99568.59
2022-08-07T07:22:32.278Z,99574.66
2022-08-07T07:24:32.668Z,99575.13
2022-08-07T07:26:37.974Z,99571.97
2022-08-07T07:29:40.434Z,99567.13
2022-08-07T07:31:17.363Z,99572.59
2022-08-07T07:33:25.404Z,99574.81
2022-08-07T07:35:33.539Z,99574.31
2022-08-07T07:38:02.084Z,99575.22
2022-08-07T07:40:14.503Z,99569.53
2022-08-07T07:42:19.954Z,99577.16
2022-08-07T07:44:26.147Z,99583.81
2022-08-07T07:46:53.925Z,99571.84
2022-08-07T07:49:08.980Z,99576.09
2022-08-07T07:51:24.235Z,99572.41
2022-08-07T07:53:30.874Z,99565.81
2022-08-07T07:55:45.759Z,99571.66
2022-08-07T07:58:01.765Z,99568.91
2022-08-07T08:00:05.716Z,99571.88
2022-08-07T08:02:22.725Z,99566.50
2022-08-07T08:04:38.684Z,99563.06
2022-08-07T08:06:51.934Z,99571.78
2022-08-07T08:08:56.120Z,99563.13
2022-08-07T08:11:04.098Z,99565.03
2022-08-07T08:13:10.324Z,99561.69
2022-08-07T08:15:16.884Z,99562.31
2022-08-07T08:17:57.460Z,99548.13
2022-08-07T08:20:19.349Z,99551.38
2022-08-07T08:22:32.946Z,99560.41
2022-08-07T08:25:25.141Z,99557.34
2022-08-07T08:27:33.676Z,99564.22
2022-08-07T08:29:55.543Z,99559.03
2022-08-07T08:32:18.436Z,99555.00
2022-08-07T08:34:27.148Z,99561.25
2022-08-07T08:36:33.802Z,99560.31
2022-08-07T08:38:44.538Z,99556.78
2022-08-07T08:41:02.744Z,99554.97
2022-08-07T08:43:31.960Z,99561.91
2022-08-07T08:45:59.076Z,99565.06
2022-08-07T08:48:07.366Z,99557.13
2022-08-07T08:50:35.413Z,99555.22
2022-08-07T08:52:55.441Z,99560.28
2022-08-07T08:55:07.834Z,99564.56
2022-08-07T08:57:20.477Z,99562.63
2022-08-07T08:59:57.211Z,99562.88
2022-08-07T09:02:36.475Z,99564.81
2022-08-07T09:04:51.645Z,99559.25
2022-08-07T09:07:07.427Z,99562.75
2022-08-07T09:09:29.998Z,99566.69
2022-08-07T09:12:31.379Z,99565.16
2022-08-07T09:14:50.740Z,99567.59
2022-08-07T09:16:52.991Z,99560.97
2022-08-07T09:18:58.365Z,99559.09
2022-08-07T09:21:58.538Z,99560.16
2022-08-07T09:24:33.138Z,99559.56
2022-08-07T09:26:53.713Z,99561.91
2022-08-07T09:30:01.923Z,99563.66
2022-08-07T09:31:48.587Z,99565.00
2022-08-07T09:34:31.669Z,99562.41
2022-08-07T09:36:58.289Z,99556.84
2022-08-07T09:39:27.409Z,99562.47
2022-08-07T09:42:09.262Z,99554.53
2022-08-07T09:45:03.595Z,99547.88
2022-08-07T09:47:49.843Z,99547.06
2022-08-07T09:50:18.347Z,99566.59
2022-08-07T09:52:33.681Z,99555.91
2022-08-07T09:54:44.223Z,99553.75
2022-08-07T09:57:36.753Z,99552.69
2022-08-07T10:00:08.446Z,99550.97
2022-08-07T10:02:19.130Z,99549.91
2022-08-07T10:05:00.542Z,99556.56
2022-08-07T10:07:31.599Z,99540.66
2022-08-07T10:10:03.261Z,99546.72
2022-08-07T10:12:21.883Z,99539.59
2022-08-07T10:14:43.423Z,99531.69
2022-08-07T10:17:16.707Z,99543.69
2022-08-07T10:19:31.808Z,99532.28
2022-08-07T10:22:14.871Z,99535.53
2022-08-07T10:24:46.177Z,99537.63
2022-08-07T10:26:53.140Z,99528.22
2022-08-07T10:29:40.460Z,99534.03
2022-08-07T10:32:16.475Z,99531.41
2022-08-07T10:34:41.140Z,99529.44
2022-08-07T10:36:52.942Z,99523.41
2022-08-07T10:39:11.943Z,99521.50
2022-08-07T10:41:53.169Z,99524.06
2022-08-07T10:44:07.316Z,99519.06
2022-08-07T10:46:18.418Z,99509.19
2022-08-07T10:48:36.302Z,99514.13
2022-08-07T10:50:50.277Z,99509.59
2022-08-07T10:53:21.672Z,99511.09
2022-08-07T10:55:37.869Z,99512.13
2022-08-07T10:57:51.580Z,99510.38
2022-08-07T11:00:39.217Z,99504.41
2022-08-07T11:02:35.738Z,99504.84
2022-08-07T11:04:57.962Z,99510.00
2022-08-07T11:07:58.833Z,99500.13
2022-08-07T11:10:08.894Z,99491.47
2022-08-07T11:12:32.321Z,99498.72
2022-08-07T11:14:57.301Z,99485.41
2022-08-07T11:17:43.405Z,99485.03
2022-08-07T11:19:47.625Z,99490.44
2022-08-07T11:22:27.386Z,99494.34
2022-08-07T11:24:53.531Z,99488.28
2022-08-07T11:27:18.700Z,99495.81
2022-08-07T11:30:10.009Z,99484.25
2022-08-07T11:32:25.759Z,99496.31
2022-08-07T11:34:34.487Z,99486.41
2022-08-07T11:36:56.431Z,99487.47
2022-08-07T11:39:23.421Z,99488.78
2022-08-07T11:42:01.780Z,99488.13
2022-08-07T11:44:18.491Z,99479.97
2022-08-07T11:46:41.941Z,99493.47
2022-08-07T11:49:51.494Z,99493.91
2022-08-07T11:51:56.517Z,99487.81
2022-08-07T11:54:22.167Z,99486.91
2022-08-07T11:56:54.072Z,99478.72
2022-08-07T12:00:10.443Z,99486.50
2022-08-07T12:02:20.531Z,99473.56
2022-08-07T12:04:37.822Z,99483.19
2022-08-07T12:06:50.866Z,99487.22
2022-08-07T12:09:02.003Z,99481.38
2022-08-07T12:11:21.895Z,99479.88
2022-08-07T12:13:37.886Z,99464.41
2022-08-07T12:16:06.681Z,99466.56
2022-08-07T12:18:22.013Z,99465.06
2022-08-07T12:20:33.403Z,99467.75
2022-08-07T12:23:37.288Z,99465.44
2022-08-07T12:26:46.703Z,99458.16
2022-08-07T12:29:01.330Z,99444.53
2022-08-07T12:31:37.706Z,99458.56
2022-08-07T12:34:01.947Z,99445.41
2022-08-07T12:36:10.976Z,99455.94
2022-08-07T12:38:16.931Z,99453.69
2022-08-07T12:40:50.990Z,99443.38
2022-08-07T12:42:57.460Z,99451.06
2022-08-07T12:45:07.385Z,99448.84
2022-08-07T12:47:21.486Z,99453.25
2022-08-07T12:50:38.311Z,99460.38
2022-08-07T12:53:05.238Z,99459.03
2022-08-07T12:55:41.139Z,99467.25
2022-08-07T12:58:01.035Z,99455.34
2022-08-07T13:00:16.257Z,99460.03
2022-08-07T13:02:49.348Z,99462.44
2022-08-07T13:05:06.359Z,99455.47
2022-08-07T13:08:13.968Z,99458.94
2022-08-07T13:10:28.293Z,99454.84
2022-08-07T13:13:02.767Z,99450.56
2022-08-07T13:15:29.327Z,99450.09
2022-08-07T13:17:57.865Z,99451.81
2022-08-07T13:20:09.792Z,99452.72
2022-08-07T13:22:37.776Z,99450.09
2022-08-07T13:24:52.458Z,99453.13
2022-08-07T13:27:05.946Z,99440.63
2022-08-07T13:29:16.999Z,99449.88
2022-08-07T13:32:06.263Z,99453.53
2022-08-07T13:34:56.649Z,99448.69
2022-08-07T13:37:11.026Z,99438.81
2022-08-07T13:40:34.976Z,99439.03
2022-08-07T13:42:19.209Z,99439.78
2022-08-07T13:44:34.455Z,99433.09
2022-08-07T13:46:49.635Z,99438.84
2022-08-07T13:48:59.567Z,99432.88
2022-08-07T13:51:27.063Z,99432.41
2022-08-07T13:53:36.047Z,99436.69
2022-08-07T13:55:54.644Z,99446.19
2022-08-07T13:58:28.168Z,99437.16
2022-08-07T14:00:50.587Z,99434.56
2022-08-07T14:02:59.161Z,99447.38
2022-08-07T14:05:08.860Z,99447.19
2022-08-07T14:07:12.104Z,99447.66
2022-08-07T14:10:02.461Z,99450.56
2022-08-07T14:11:53.384Z,99440.88
2022-08-07T14:14:11.409Z,99440.66
2022-08-07T14:16:16.117Z,99437.59
2022-08-07T14:18:33.408Z,99437.41
2022-08-07T14:20:40.222Z,99438.88
2022-08-07T14:22:53.155Z,99439.25
2022-08-07T14:25:13.668Z,99456.44
2022-08-07T14:28:10.737Z,99439.81
2022-08-07T14:30:07.337Z,99450.38
2022-08-07T14:32:13.603Z,99445.41
2022-08-07T14:34:20.281Z,99448.69
2022-08-07T14:36:24.346Z,99449.53
2022-08-07T14:38:33.365Z,99450.16
2022-08-07T14:40:37.204Z,99449.56
2022-08-07T14:43:54.910Z,99453.03
2022-08-07T14:45:20.824Z,99445.59
2022-08-07T14:47:26.585Z,99445.59
2022-08-07T14:49:58.184Z,99450.56
2022-08-07T14:52:03.267Z,99448.66
2022-08-07T14:56:47.781Z,99455.81
2022-08-07T14:58:57.454Z,99452.41
2022-08-07T15:01:00.270Z,99466.38
2022-08-07T15:03:51.391Z,99465.50
2022-08-07T15:05:55.367Z,99472.19
2022-08-07T15:08:12.565Z,99461.25
2022-08-07T15:10:25.081Z,99467.75
2022-08-07T15:12:35.086Z,99471.19
2022-08-07T15:14:57.583Z,99463.84
2022-08-07T15:17:04.206Z,99468.75
2022-08-07T15:19:10.345Z,99474.34
2022-08-07T15:25:15.911Z,99466.44
2022-08-07T15:26:22.449Z,99479.75
2022-08-07T15:28:45.018Z,99485.09
2022-08-07T15:30:59.375Z,99477.09
2022-08-07T15:33:19.212Z,99491.09
2022-08-07T15:35:40.690Z,99483.38
2022-08-07T15:38:17.365Z,99487.91
2022-08-07T15:40:35.033Z,99473.31
2022-08-07T15:42:47.896Z,99477.97
2022-08-07T15:44:52.300Z,99476.25
2022-08-07T15:47:03.477Z,99476.03
2022-08-07T15:49:16.299Z,99476.22
2022-08-07T15:51:20.394Z,99476.22
2022-08-07T15:53:53.624Z,99475.97
2022-08-07T15:56:02.964Z,99474.72
2022-08-07T15:58:20.707Z,99475.78
2022-08-07T16:00:33.377Z,99471.66
2022-08-07T16:02:40.014Z,99465.81
2022-08-07T16:04:44.007Z,99472.25
2022-08-07T16:06:52.529Z,99466.69
2022-08-07T16:09:01.224Z,99461.59
2022-08-07T16:11:27.222Z,99470.84
2022-08-07T16:13:58.939Z,99470.19
2022-08-07T16:16:47.924Z,99462.28
2022-08-07T16:18:49.708Z,99465.66
2022-08-07T16:22:02.680Z,99464.06
2022-08-07T16:23:58.564Z,99462.50
2022-08-07T16:26:14.653Z,99465.88
2022-08-07T16:30:06.460Z,99457.38
2022-08-07T16:31:50.821Z,99466.28
2022-08-07T16:34:09.958Z,99461.59
2022-08-07T16:37:02.771Z,99464.59
2022-08-07T16:39:49.077Z,99467.91
2022-08-07T16:42:16.102Z,99468.16
2022-08-07T16:45:14.013Z,99474.88
2022-08-07T16:47:51.520Z,99464.81
2022-08-07T16:50:20.571Z,99475.53
2022-08-07T16:54:01.469Z,99474.69
2022-08-07T16:56:00.226Z,99483.25
2022-08-07T16:58:11.227Z,99485.44
2022-08-07T17:00:30.037Z,99481.56
2022-08-07T17:02:53.886Z,99483.56
2022-08-07T17:06:19.573Z,99481.00
2022-08-07T17:07:58.168Z,99481.88
2022-08-07T17:10:09.198Z,99486.00
2022-08-07T17:12:52.895Z,99487.88
2022-08-07T17:15:16.095Z,99487.69
2022-08-07T17:17:46.686Z,99485.50
2022-08-07T17:20:02.966Z,99493.25
2022-08-07T17:22:27.454Z,99491.50
2022-08-07T17:24:38.136Z,99493.03
2022-08-07T17:26:56.071Z,99492.38
2022-08-07T17:28:58.004Z,99484.00
2022-08-07T17:31:44.253Z,99490.13
2022-08-07T17:34:34.786Z,99492.84
2022-08-07T17:36:58.178Z,99491.34
2022-08-07T17:39:10.149Z,99494.31
2022-08-07T17:42:02.188Z,99497.53
2022-08-07T17:44:15.577Z,99497.53
2022-08-07T17:47:03.099Z,99507.81
2022-08-07T17:49:23.042Z,99504.31
2022-08-07T17:51:49.703Z,99501.72
2022-08-07T17:54:02.222Z,99503.59
2022-08-07T17:56:15.339Z,99512.69
2022-08-07T17:58:49.780Z,99508.16
2022-08-07T18:00:54.447Z,99507.72
2022-08-07T18:03:17.839Z,99514.81
2022-08-07T18:06:03.290Z,99517.34
2022-08-07T18:08:15.417Z,99519.09
2022-08-07T18:12:11.867Z,99518.22
2022-08-07T18:13:40.442Z,99517.44
2022-08-07T18:16:12.699Z,99512.53
2022-08-07T18:18:46.176Z,99537.16
2022-08-07T18:21:09.540Z,99530.88
2022-08-07T18:23:43.286Z,99530.81
2022-08-07T18:25:51.406Z,99529.63
2022-08-07T18:28:35.566Z,99539.06
2022-08-07T18:31:02.931Z,99541.94
2022-08-07T18:33:55.667Z,99542.88
2022-08-07T18:36:14.095Z,99539.53
2022-08-07T18:38:54.814Z,99537.06
2022-08-07T18:41:45.372Z,99545.13
2022-08-07T18:44:12.653Z,99543.41
2022-08-07T18:46:27.583Z,99545.72
2022-08-07T18:50:19.635Z,99551.09
2022-08-07T18:51:08.295Z,99551.25
2022-08-07T18:53:48.707Z,99548.09
2022-08-07T18:56:16.494Z,99556.31
2022-08-07T18:58:51.594Z,99553.59
2022-08-07T19:01:05.690Z,99553.66
2022-08-07T19:03:16.015Z,99551.84
2022-08-07T19:06:02.350Z,99556.56
2022-08-07T19:08:14.162Z,99557.13
2022-08-07T19:10:21.902Z,99563.34
2022-08-07T19:12:53.347Z,99564.56
2022-08-07T19:16:03.087Z,99569.66
2022-08-07T19:18:07.221Z,99560.09
2022-08-07T19:20:28.827Z,99569.75
2022-08-07T19:22:40.434Z,99564.75
2022-08-07T19:24:48.826Z,99575.97
2022-08-07T19:27:09.309Z,99564.31
2022-08-07T19:31:00.302Z,99565.63
2022-08-07T19:32:06.818Z,99571.84
2022-08-07T19:34:13.463Z,99573.56
2022-08-07T19:36:27.561Z,99584.09
2022-08-07T19:38:34.104Z,99586.28
2022-08-07T19:40:50.331Z,99581.97
2022-08-07T19:42:55.054Z,99582.28
2022-08-07T19:45:08.305Z,99581.97
2022-08-07T19:47:16.415Z,99586.13
2022-08-07T19:49:57.209Z,99597.41
2022-08-07T19:51:51.830Z,99594.22
2022-08-07T19:54:33.411Z,99600.03
2022-08-07T19:57:52.329Z,99605.75
2022-08-07T19:58:53.123Z,99597.72
2022-08-07T20:00:57.895Z,99602.84
2022-08-07T20:03:34.994Z,99599.22
2022-08-07T20:06:00.943Z,99605.41
2022-08-07T20:08:07.012Z,99611.47
2022-08-07T20:10:36.475Z,99606.41
2022-08-07T20:12:42.852Z,99613.09
2022-08-07T20:14:54.066Z,99618.81
2022-08-07T20:17:03.590Z,99608.78
2022-08-07T20:19:10.103Z,99614.97
2022-08-07T20:21:20.954Z,99607.16
2022-08-07T20:23:42.202Z,99597.59
2022-08-07T20:25:51.158Z,99608.88
2022-08-07T20:27:58.672Z,99601.78
2022-08-07T20:30:11.169Z,99612.88
2022-08-07T20:32:22.897Z,99610.56
2022-08-07T20:34:49.751Z,99609.19
2022-08-07T20:36:53.296Z,99612.66
2022-08-07T20:39:00.268Z,99613.66
2022-08-07T20:41:08.898Z,99621.59
2022-08-07T20:43:14.659Z,99627.81
2022-08-07T20:45:33.248Z,99621.13
2022-08-07T20:47:56.876Z,99622.63
2022-08-07T20:50:02.376Z,99626.63
2022-08-07T20:52:13.879Z,99614.84
2022-08-07T20:54:30.306Z,99624.75
2022-08-07T20:56:46.150Z,99622.16
2022-08-07T20:58:53.326Z,99624.56
2022-08-07T21:01:05.917Z,99617.97
2022-08-07T21:03:25.981Z,99620.34
2022-08-07T21:05:54.931Z,99612.59
2022-08-07T21:08:01.033Z,99621.94
2022-08-07T21:10:04.165Z,99625.22
2022-08-07T21:12:15.240Z,99620.03
2022-08-07T21:14:34.135Z,99623.38
2022-08-07T21:18:00.505Z,99621.91
2022-08-07T21:19:32.192Z,99618.44
2022-08-07T21:21:57.378Z,99615.88
2022-08-07T21:24:15.260Z,99622.78
2022-08-07T21:26:27.191Z,99622.25
2022-08-07T21:28:48.281Z,99636.31
2022-08-07T21:31:07.292Z,99631.97
2022-08-07T21:33:12.523Z,99624.72
2022-08-07T21:36:05.978Z,99629.22
2022-08-07T21:38:27.654Z,99624.25
2022-08-07T21:40:49.441Z,99626.34
2022-08-07T21:43:23.331Z,99637.06
2022-08-07T21:46:04.770Z,99630.00
2022-08-07T21:48:06.411Z,99626.66
2022-08-07T21:50:49.562Z,99631.88
2022-08-07T21:53:07.746Z,99631.34
2022-08-07T21:55:51.927Z,99626.53
2022-08-07T21:58:32.229Z,99634.28
2022-08-07T22:00:39.869Z,99629.09
2022-08-07T22:02:52.577Z,99622.53
2022-08-07T22:04:59.355Z,99628.94
2022-08-07T22:07:03.962Z,99633.59
2022-08-07T22:09:12.235Z,99625.13
2022-08-07T22:11:18.390Z,99629.09
2022-08-07T22:13:24.577Z,99626.00
2022-08-07T22:16:42.502Z,99623.59
2022-08-07T22:18:23.746Z,99626.88
2022-08-07T22:20:53.985Z,99630.13
2022-08-07T22:23:03.469Z,99628.44
2022-08-07T22:25:13.265Z,99629.81
2022-08-07T22:27:34.148Z,99637.72
2022-08-07T22:30:12.710Z,99627.53
2022-08-07T22:32:20.728Z,99640.16
2022-08-07T22:34:55.633Z,99632.16
2022-08-07T22:37:22.731Z,99637.69
2022-08-07T22:40:04.885Z,99631.09
2022-08-07T22:42:19.016Z,99633.84
2022-08-07T22:44:25.477Z,99630.25
2022-08-07T22:47:06.555Z,99638.34
2022-08-07T22:49:23.325Z,99636.25
2022-08-07T22:51:43.816Z,99624.56
2022-08-07T22:54:22.250Z,99630.06
2022-08-07T22:56:38.330Z,99630.91
2022-08-07T22:58:57.497Z,99636.75
2022-08-07T23:01:20.863Z,99637.94
2022-08-07T23:03:58.592Z,99635.38
2022-08-07T23:06:28.718Z,99642.63
2022-08-07T23:08:57.620Z,99636.38
2022-08-07T23:11:21.542Z,99631.56
2022-08-07T23:14:05.182Z,99638.94
2022-08-07T23:16:48.527Z,99634.91
2022-08-07T23:19:47.680Z,99632.69
2022-08-07T23:22:00.029Z,99628.19
2022-08-07T23:24:11.220Z,99628.00
2022-08-07T23:26:23.439Z,99631.09
2022-08-07T23:28:54.407Z,99629.53
2022-08-07T23:31:11.390Z,99624.84
2022-08-07T23:34:36.713Z,99622.91
2022-08-07T23:37:19.141Z,99635.09
2022-08-07T23:39:36.043Z,99623.00
2022-08-07T23:42:04.604Z,99622.28
2022-08-07T23:44:49.174Z,99624.19
2022-08-07T23:47:09.976Z,99631.06
2022-08-07T23:49:49.867Z,99631.00
2022-08-07T23:53:02.156Z,99628.88
2022-08-07T23:55:05.662Z,99626.03
2022-08-07T23:57:11.328Z,99629.13
